Accueil
METAR-TAF:

METAR-TAF

Aéroports :

Pocono Mountains Municipal Airport

Mount Pocono, Pennsylvanie, États-Unis

latitude: 41-08-20N, longitude: 075-23-46W, altitude: 584 m

Observation

Le bulletin a été fait il y a 39 minutes, à 02:53 UTC
Vent 7 kt de nord/nord-ouest
Température -6°C
Humidité 86%
Pression 1019 hPa
Visibilité: 16.1 km
Ciel clair

METAR: KMPO 110253Z AUTO 34007KT 10SM CLR M06/M08 A3008 RMK AO2 SLP216 T10611083 50002

Heure: 22:32 (03:32 UTC)


TAF: absent

Observations et prévisions météorologiques de plus de 4000 aéroports (messages METAR et TAF).

Les stations disponibles sont représentées par des disques jaunes et rouges sur la carte.

Passer la souris dessus pour voir le nom de la station.

Cliquer dessus pour voir les observations et prévisions météorologiques.

Pour changer de carte: cliquez sur les boutons verts avec une croix noire pour zoomer, sur le bouton vert avec un tiret pour effectuer un zoom arrière, ou sur les flèches vertes pour les cartes adjacentes.


METAR-TAF: